sensor_id;sensor_type;location;lat;lon;timestamp;P1;durP1;ratioP1;P2;durP2;ratioP2
78372;SDS011;67656;52.074;4.758;2023-07-20T00:04:10;15.58;;;7.76;;
78372;SDS011;67656;52.074;4.758;2023-07-20T00:09:11;12.68;;;6.75;;
78372;SDS011;67656;52.074;4.758;2023-07-20T00:14:11;14.98;;;6.90;;
78372;SDS011;67656;52.074;4.758;2023-07-20T00:19:12;16.65;;;6.72;;
78372;SDS011;67656;52.074;4.758;2023-07-20T00:24:12;13.85;;;6.38;;
78372;SDS011;67656;52.074;4.758;2023-07-20T00:29:13;9.90;;;5.53;;
78372;SDS011;67656;52.074;4.758;2023-07-20T00:34:14;10.85;;;4.35;;
78372;SDS011;67656;52.074;4.758;2023-07-20T00:39:14;7.22;;;3.50;;
78372;SDS011;67656;52.074;4.758;2023-07-20T00:44:15;5.82;;;3.13;;
78372;SDS011;67656;52.074;4.758;2023-07-20T00:49:16;4.53;;;2.75;;
78372;SDS011;67656;52.074;4.758;2023-07-20T00:54:16;4.95;;;2.65;;
78372;SDS011;67656;52.074;4.758;2023-07-20T00:59:17;5.90;;;2.78;;
78372;SDS011;67656;52.074;4.758;2023-07-20T01:04:17;5.32;;;2.85;;
78372;SDS011;67656;52.074;4.758;2023-07-20T01:09:18;5.88;;;2.83;;
78372;SDS011;67656;52.074;4.758;2023-07-20T01:14:23;5.93;;;2.90;;
78372;SDS011;67656;52.074;4.758;2023-07-20T01:19:23;7.32;;;3.38;;
78372;SDS011;67656;52.074;4.758;2023-07-20T01:35:16;7.35;;;3.65;;
78372;SDS011;67656;52.074;4.758;2023-07-20T01:40:20;9.98;;;3.53;;
78372;SDS011;67656;52.074;4.758;2023-07-20T01:45:22;8.82;;;3.58;;
78372;SDS011;67656;52.074;4.758;2023-07-20T01:50:23;6.30;;;3.25;;
78372;SDS011;67656;52.074;4.758;2023-07-20T01:55:23;7.15;;;3.38;;
78372;SDS011;67656;52.074;4.758;2023-07-20T02:00:23;7.38;;;3.72;;
78372;SDS011;67656;52.074;4.758;2023-07-20T02:05:24;7.60;;;3.80;;
78372;SDS011;67656;52.074;4.758;2023-07-20T02:10:25;9.55;;;3.60;;
78372;SDS011;67656;52.074;4.758;2023-07-20T02:15:25;5.68;;;3.26;;
78372;SDS011;67656;52.074;4.758;2023-07-20T02:20:25;8.10;;;3.70;;
78372;SDS011;67656;52.074;4.758;2023-07-20T02:25:26;8.35;;;3.42;;
78372;SDS011;67656;52.074;4.758;2023-07-20T02:30:26;8.30;;;3.40;;
78372;SDS011;67656;52.074;4.758;2023-07-20T02:35:26;8.63;;;3.55;;
78372;SDS011;67656;52.074;4.758;2023-07-20T02:40:27;10.32;;;3.72;;
78372;SDS011;67656;52.074;4.758;2023-07-20T02:45:27;9.27;;;3.60;;
78372;SDS011;67656;52.074;4.758;2023-07-20T02:50:27;11.75;;;4.50;;
78372;SDS011;67656;52.074;4.758;2023-07-20T02:55:28;12.52;;;5.05;;
78372;SDS011;67656;52.074;4.758;2023-07-20T03:00:28;12.73;;;5.00;;
78372;SDS011;67656;52.074;4.758;2023-07-20T03:05:28;15.90;;;5.65;;
78372;SDS011;67656;52.074;4.758;2023-07-20T03:10:29;15.85;;;5.72;;
78372;SDS011;67656;52.074;4.758;2023-07-20T03:15:30;11.55;;;5.35;;
78372;SDS011;67656;52.074;4.758;2023-07-20T03:20:31;14.48;;;5.18;;
78372;SDS011;67656;52.074;4.758;2023-07-20T03:25:31;14.60;;;5.65;;
78372;SDS011;67656;52.074;4.758;2023-07-20T03:30:32;16.77;;;6.40;;
78372;SDS011;67656;52.074;4.758;2023-07-20T03:35:32;18.05;;;6.07;;
78372;SDS011;67656;52.074;4.758;2023-07-20T03:40:33;22.77;;;7.80;;
78372;SDS011;67656;52.074;4.758;2023-07-20T03:45:33;25.48;;;9.20;;
78372;SDS011;67656;52.074;4.758;2023-07-20T03:50:33;28.00;;;9.80;;
78372;SDS011;67656;52.074;4.758;2023-07-20T03:55:34;27.13;;;9.30;;
78372;SDS011;67656;52.074;4.758;2023-07-20T04:00:34;26.20;;;9.48;;
78372;SDS011;67656;52.074;4.758;2023-07-20T04:05:34;27.73;;;9.00;;
78372;SDS011;67656;52.074;4.758;2023-07-20T04:10:35;27.65;;;10.00;;
78372;SDS011;67656;52.074;4.758;2023-07-20T04:15:35;30.23;;;10.40;;
78372;SDS011;67656;52.074;4.758;2023-07-20T04:20:36;28.85;;;10.48;;
78372;SDS011;67656;52.074;4.758;2023-07-20T04:25:38;33.25;;;10.98;;
78372;SDS011;67656;52.074;4.758;2023-07-20T04:30:39;28.00;;;10.05;;
78372;SDS011;67656;52.074;4.758;2023-07-20T04:40:52;24.55;;;9.20;;
78372;SDS011;67656;52.074;4.758;2023-07-20T04:45:53;27.27;;;9.20;;
78372;SDS011;67656;52.074;4.758;2023-07-20T04:50:54;27.13;;;9.23;;
78372;SDS011;67656;52.074;4.758;2023-07-20T04:55:54;26.88;;;10.07;;
78372;SDS011;67656;52.074;4.758;2023-07-20T05:00:57;28.10;;;11.07;;
78372;SDS011;67656;52.074;4.758;2023-07-20T05:05:57;25.98;;;9.70;;
78372;SDS011;67656;52.074;4.758;2023-07-20T05:10:59;23.67;;;9.85;;
78372;SDS011;67656;52.074;4.758;2023-07-20T05:15:59;17.13;;;9.23;;
78372;SDS011;67656;52.074;4.758;2023-07-20T05:21:00;14.50;;;6.63;;
78372;SDS011;67656;52.074;4.758;2023-07-20T05:26:00;10.35;;;5.35;;
78372;SDS011;67656;52.074;4.758;2023-07-20T05:31:04;8.55;;;5.10;;
78372;SDS011;67656;52.074;4.758;2023-07-20T05:36:04;6.28;;;4.05;;
78372;SDS011;67656;52.074;4.758;2023-07-20T05:41:05;6.47;;;3.90;;
78372;SDS011;67656;52.074;4.758;2023-07-20T05:46:05;6.75;;;3.13;;
78372;SDS011;67656;52.074;4.758;2023-07-20T05:51:12;3.58;;;2.05;;
78372;SDS011;67656;52.074;4.758;2023-07-20T05:56:13;2.38;;;1.48;;
78372;SDS011;67656;52.074;4.758;2023-07-20T06:01:34;2.33;;;1.30;;
78372;SDS011;67656;52.074;4.758;2023-07-20T06:06:34;1.92;;;1.20;;
78372;SDS011;67656;52.074;4.758;2023-07-20T06:11:35;2.28;;;1.30;;
78372;SDS011;67656;52.074;4.758;2023-07-20T06:16:35;2.25;;;1.30;;
78372;SDS011;67656;52.074;4.758;2023-07-20T06:21:38;1.10;;;0.85;;
78372;SDS011;67656;52.074;4.758;2023-07-20T06:27:00;1.00;;;0.60;;
78372;SDS011;67656;52.074;4.758;2023-07-20T06:32:07;1.13;;;0.80;;
78372;SDS011;67656;52.074;4.758;2023-07-20T06:37:08;1.40;;;0.60;;
78372;SDS011;67656;52.074;4.758;2023-07-20T06:42:08;1.85;;;0.80;;
78372;SDS011;67656;52.074;4.758;2023-07-20T06:47:08;0.95;;;0.63;;
78372;SDS011;67656;52.074;4.758;2023-07-20T06:52:09;1.25;;;0.80;;
78372;SDS011;67656;52.074;4.758;2023-07-20T06:57:09;0.70;;;0.50;;
78372;SDS011;67656;52.074;4.758;2023-07-20T07:02:09;0.80;;;0.57;;
78372;SDS011;67656;52.074;4.758;2023-07-20T07:07:10;0.93;;;0.63;;
78372;SDS011;67656;52.074;4.758;2023-07-20T07:12:10;2.28;;;0.77;;
78372;SDS011;67656;52.074;4.758;2023-07-20T07:17:11;0.77;;;0.60;;
78372;SDS011;67656;52.074;4.758;2023-07-20T07:22:11;1.13;;;0.80;;
78372;SDS011;67656;52.074;4.758;2023-07-20T07:27:12;1.67;;;1.13;;
78372;SDS011;67656;52.074;4.758;2023-07-20T07:32:12;0.82;;;0.60;;
78372;SDS011;67656;52.074;4.758;2023-07-20T07:37:13;1.43;;;0.77;;
78372;SDS011;67656;52.074;4.758;2023-07-20T07:42:13;1.30;;;0.60;;
78372;SDS011;67656;52.074;4.758;2023-07-20T07:47:17;1.88;;;0.70;;
78372;SDS011;67656;52.074;4.758;2023-07-20T07:52:18;1.27;;;0.60;;
78372;SDS011;67656;52.074;4.758;2023-07-20T07:57:19;1.43;;;0.70;;
78372;SDS011;67656;52.074;4.758;2023-07-20T08:02:19;1.03;;;0.70;;
78372;SDS011;67656;52.074;4.758;2023-07-20T08:07:20;2.53;;;1.10;;
78372;SDS011;67656;52.074;4.758;2023-07-20T08:12:20;1.47;;;1.00;;
78372;SDS011;67656;52.074;4.758;2023-07-20T08:17:30;2.53;;;0.90;;
78372;SDS011;67656;52.074;4.758;2023-07-20T08:22:30;1.77;;;1.10;;
78372;SDS011;67656;52.074;4.758;2023-07-20T08:27:31;1.13;;;0.80;;
78372;SDS011;67656;52.074;4.758;2023-07-20T08:32:32;1.53;;;0.90;;
78372;SDS011;67656;52.074;4.758;2023-07-20T08:37:32;2.30;;;1.10;;
78372;SDS011;67656;52.074;4.758;2023-07-20T08:42:33;1.30;;;1.00;;
78372;SDS011;67656;52.074;4.758;2023-07-20T08:47:33;1.77;;;1.10;;
78372;SDS011;67656;52.074;4.758;2023-07-20T08:52:34;1.42;;;0.80;;
78372;SDS011;67656;52.074;4.758;2023-07-20T08:57:35;1.27;;;0.70;;
78372;SDS011;67656;52.074;4.758;2023-07-20T09:02:38;1.60;;;0.80;;
78372;SDS011;67656;52.074;4.758;2023-07-20T09:07:39;1.27;;;0.85;;
78372;SDS011;67656;52.074;4.758;2023-07-20T09:12:41;2.13;;;1.02;;
78372;SDS011;67656;52.074;4.758;2023-07-20T09:17:46;1.50;;;1.00;;
78372;SDS011;67656;52.074;4.758;2023-07-20T09:22:47;1.92;;;0.88;;
78372;SDS011;67656;52.074;4.758;2023-07-20T09:27:48;3.70;;;0.75;;
78372;SDS011;67656;52.074;4.758;2023-07-20T09:32:49;1.45;;;0.80;;
78372;SDS011;67656;52.074;4.758;2023-07-20T09:37:51;1.10;;;0.80;;
78372;SDS011;67656;52.074;4.758;2023-07-20T09:42:54;1.85;;;0.70;;
78372;SDS011;67656;52.074;4.758;2023-07-20T09:48:03;1.17;;;0.73;;
78372;SDS011;67656;52.074;4.758;2023-07-20T09:53:04;2.13;;;0.90;;
78372;SDS011;67656;52.074;4.758;2023-07-20T09:58:05;2.95;;;0.80;;
78372;SDS011;67656;52.074;4.758;2023-07-20T10:03:07;1.13;;;0.88;;
78372;SDS011;67656;52.074;4.758;2023-07-20T10:08:11;1.35;;;0.80;;
78372;SDS011;67656;52.074;4.758;2023-07-20T10:13:15;2.95;;;1.00;;
78372;SDS011;67656;52.074;4.758;2023-07-20T10:18:25;2.70;;;1.00;;
78372;SDS011;67656;52.074;4.758;2023-07-20T10:23:30;2.90;;;1.02;;
78372;SDS011;67656;52.074;4.758;2023-07-20T10:28:31;1.50;;;1.20;;
78372;SDS011;67656;52.074;4.758;2023-07-20T10:33:32;3.13;;;1.20;;
78372;SDS011;67656;52.074;4.758;2023-07-20T10:38:42;1.85;;;1.20;;
78372;SDS011;67656;52.074;4.758;2023-07-20T10:43:46;2.20;;;1.20;;
78372;SDS011;67656;52.074;4.758;2023-07-20T10:49:00;1.75;;;1.00;;
78372;SDS011;67656;52.074;4.758;2023-07-20T10:54:01;2.42;;;1.10;;
78372;SDS011;67656;52.074;4.758;2023-07-20T10:59:02;1.63;;;1.05;;
78372;SDS011;67656;52.074;4.758;2023-07-20T11:04:18;2.33;;;0.80;;
78372;SDS011;67656;52.074;4.758;2023-07-20T11:14:23;1.33;;;1.00;;
78372;SDS011;67656;52.074;4.758;2023-07-20T11:19:25;2.27;;;1.10;;
78372;SDS011;67656;52.074;4.758;2023-07-20T11:24:26;1.63;;;0.83;;
78372;SDS011;67656;52.074;4.758;2023-07-20T11:29:27;2.10;;;1.05;;
78372;SDS011;67656;52.074;4.758;2023-07-20T11:34:31;1.40;;;0.80;;
78372;SDS011;67656;52.074;4.758;2023-07-20T11:39:32;2.17;;;0.93;;
78372;SDS011;67656;52.074;4.758;2023-07-20T11:44:32;1.20;;;0.93;;
78372;SDS011;67656;52.074;4.758;2023-07-20T11:49:37;2.45;;;1.00;;
78372;SDS011;67656;52.074;4.758;2023-07-20T11:54:39;1.10;;;0.75;;
78372;SDS011;67656;52.074;4.758;2023-07-20T11:59:40;2.03;;;1.02;;
78372;SDS011;67656;52.074;4.758;2023-07-20T12:04:54;2.25;;;0.63;;
78372;SDS011;67656;52.074;4.758;2023-07-20T12:10:05;1.42;;;0.70;;
78372;SDS011;67656;52.074;4.758;2023-07-20T12:15:17;0.50;;;0.50;;
78372;SDS011;67656;52.074;4.758;2023-07-20T12:20:32;1.33;;;0.70;;
78372;SDS011;67656;52.074;4.758;2023-07-20T12:25:36;1.42;;;0.50;;
78372;SDS011;67656;52.074;4.758;2023-07-20T12:30:38;1.30;;;0.70;;
78372;SDS011;67656;52.074;4.758;2023-07-20T12:35:40;1.50;;;0.65;;
78372;SDS011;67656;52.074;4.758;2023-07-20T12:40:40;1.35;;;0.60;;
78372;SDS011;67656;52.074;4.758;2023-07-20T12:45:41;1.20;;;0.60;;
78372;SDS011;67656;52.074;4.758;2023-07-20T12:50:42;1.07;;;0.63;;
78372;SDS011;67656;52.074;4.758;2023-07-20T12:55:42;1.40;;;0.63;;
78372;SDS011;67656;52.074;4.758;2023-07-20T13:00:43;0.82;;;0.60;;
78372;SDS011;67656;52.074;4.758;2023-07-20T13:05:43;1.95;;;0.70;;
78372;SDS011;67656;52.074;4.758;2023-07-20T13:10:44;1.63;;;0.60;;
78372;SDS011;67656;52.074;4.758;2023-07-20T13:15:44;1.10;;;0.52;;
78372;SDS011;67656;52.074;4.758;2023-07-20T13:20:45;0.82;;;0.60;;
78372;SDS011;67656;52.074;4.758;2023-07-20T13:25:45;0.90;;;0.77;;
78372;SDS011;67656;52.074;4.758;2023-07-20T13:30:45;1.48;;;0.50;;
78372;SDS011;67656;52.074;4.758;2023-07-20T13:35:46;1.52;;;0.75;;
78372;SDS011;67656;52.074;4.758;2023-07-20T13:40:46;1.25;;;0.98;;
78372;SDS011;67656;52.074;4.758;2023-07-20T13:45:47;0.60;;;0.52;;
78372;SDS011;67656;52.074;4.758;2023-07-20T13:50:47;1.40;;;0.60;;
78372;SDS011;67656;52.074;4.758;2023-07-20T13:55:48;0.90;;;0.60;;
78372;SDS011;67656;52.074;4.758;2023-07-20T14:00:49;1.10;;;0.60;;
78372;SDS011;67656;52.074;4.758;2023-07-20T14:05:49;0.73;;;0.60;;
78372;SDS011;67656;52.074;4.758;2023-07-20T14:10:50;0.70;;;0.40;;
78372;SDS011;67656;52.074;4.758;2023-07-20T14:15:53;1.10;;;0.50;;
78372;SDS011;67656;52.074;4.758;2023-07-20T14:20:54;0.55;;;0.55;;
78372;SDS011;67656;52.074;4.758;2023-07-20T14:25:54;0.73;;;0.40;;
78372;SDS011;67656;52.074;4.758;2023-07-20T14:30:55;1.13;;;0.50;;
78372;SDS011;67656;52.074;4.758;2023-07-20T14:35:55;1.47;;;0.60;;
78372;SDS011;67656;52.074;4.758;2023-07-20T14:40:56;0.80;;;0.60;;
78372;SDS011;67656;52.074;4.758;2023-07-20T14:45:56;1.35;;;0.43;;
78372;SDS011;67656;52.074;4.758;2023-07-20T14:50:57;1.25;;;0.50;;
78372;SDS011;67656;52.074;4.758;2023-07-20T14:56:00;0.85;;;0.60;;
78372;SDS011;67656;52.074;4.758;2023-07-20T15:01:01;1.25;;;0.52;;
78372;SDS011;67656;52.074;4.758;2023-07-20T15:06:02;1.08;;;0.50;;
78372;SDS011;67656;52.074;4.758;2023-07-20T15:11:03;0.68;;;0.43;;
78372;SDS011;67656;52.074;4.758;2023-07-20T15:16:04;1.10;;;0.60;;
78372;SDS011;67656;52.074;4.758;2023-07-20T15:21:04;0.70;;;0.68;;
78372;SDS011;67656;52.074;4.758;2023-07-20T15:26:05;0.88;;;0.50;;
78372;SDS011;67656;52.074;4.758;2023-07-20T15:31:05;1.23;;;0.43;;
78372;SDS011;67656;52.074;4.758;2023-07-20T15:36:06;1.95;;;0.40;;
78372;SDS011;67656;52.074;4.758;2023-07-20T15:41:06;0.70;;;0.50;;
78372;SDS011;67656;52.074;4.758;2023-07-20T15:51:19;1.63;;;0.50;;
78372;SDS011;67656;52.074;4.758;2023-07-20T15:56:20;1.10;;;0.52;;
78372;SDS011;67656;52.074;4.758;2023-07-20T16:01:20;0.60;;;0.40;;
78372;SDS011;67656;52.074;4.758;2023-07-20T16:06:23;1.58;;;0.43;;
78372;SDS011;67656;52.074;4.758;2023-07-20T16:11:25;0.82;;;0.40;;
78372;SDS011;67656;52.074;4.758;2023-07-20T16:16:25;0.90;;;0.55;;
78372;SDS011;67656;52.074;4.758;2023-07-20T16:21:26;0.65;;;0.40;;
78372;SDS011;67656;52.074;4.758;2023-07-20T16:26:26;1.23;;;0.50;;
78372;SDS011;67656;52.074;4.758;2023-07-20T16:31:27;0.80;;;0.60;;
78372;SDS011;67656;52.074;4.758;2023-07-20T16:36:30;0.65;;;0.40;;
78372;SDS011;67656;52.074;4.758;2023-07-20T16:41:31;0.82;;;0.50;;
78372;SDS011;67656;52.074;4.758;2023-07-20T16:46:32;0.90;;;0.50;;
78372;SDS011;67656;52.074;4.758;2023-07-20T16:51:33;1.25;;;0.50;;
78372;SDS011;67656;52.074;4.758;2023-07-20T16:56:34;0.80;;;0.60;;
78372;SDS011;67656;52.074;4.758;2023-07-20T17:01:34;0.93;;;0.50;;
78372;SDS011;67656;52.074;4.758;2023-07-20T17:06:37;0.80;;;0.50;;
78372;SDS011;67656;52.074;4.758;2023-07-20T17:11:38;0.80;;;0.50;;
78372;SDS011;67656;52.074;4.758;2023-07-20T17:16:38;0.82;;;0.50;;
78372;SDS011;67656;52.074;4.758;2023-07-20T17:21:39;0.63;;;0.50;;
78372;SDS011;67656;52.074;4.758;2023-07-20T17:26:39;0.90;;;0.50;;
78372;SDS011;67656;52.074;4.758;2023-07-20T17:31:40;1.30;;;0.60;;
78372;SDS011;67656;52.074;4.758;2023-07-20T17:36:43;1.38;;;0.70;;
78372;SDS011;67656;52.074;4.758;2023-07-20T17:41:43;0.90;;;0.60;;
78372;SDS011;67656;52.074;4.758;2023-07-20T17:46:43;1.42;;;0.52;;
78372;SDS011;67656;52.074;4.758;2023-07-20T17:51:44;1.00;;;0.60;;
78372;SDS011;67656;52.074;4.758;2023-07-20T17:56:44;0.90;;;0.60;;
78372;SDS011;67656;52.074;4.758;2023-07-20T18:01:45;1.13;;;0.65;;
78372;SDS011;67656;52.074;4.758;2023-07-20T18:06:45;1.10;;;0.70;;
78372;SDS011;67656;52.074;4.758;2023-07-20T18:11:46;0.88;;;0.60;;
78372;SDS011;67656;52.074;4.758;2023-07-20T18:16:46;0.85;;;0.70;;
78372;SDS011;67656;52.074;4.758;2023-07-20T18:21:47;0.90;;;0.50;;
78372;SDS011;67656;52.074;4.758;2023-07-20T18:26:47;0.98;;;0.60;;
78372;SDS011;67656;52.074;4.758;2023-07-20T18:31:48;1.67;;;0.70;;
78372;SDS011;67656;52.074;4.758;2023-07-20T18:36:48;1.60;;;0.60;;
78372;SDS011;67656;52.074;4.758;2023-07-20T18:41:48;1.10;;;0.70;;
78372;SDS011;67656;52.074;4.758;2023-07-20T18:46:49;2.58;;;0.63;;
78372;SDS011;67656;52.074;4.758;2023-07-20T18:51:52;1.42;;;0.75;;
78372;SDS011;67656;52.074;4.758;2023-07-20T18:56:53;2.95;;;0.85;;
78372;SDS011;67656;52.074;4.758;2023-07-20T19:01:53;1.88;;;0.70;;
78372;SDS011;67656;52.074;4.758;2023-07-20T19:06:54;1.48;;;0.85;;
78372;SDS011;67656;52.074;4.758;2023-07-20T19:11:54;1.73;;;0.82;;
78372;SDS011;67656;52.074;4.758;2023-07-20T19:16:55;0.80;;;0.70;;
78372;SDS011;67656;52.074;4.758;2023-07-20T19:21:55;1.25;;;0.70;;
78372;SDS011;67656;52.074;4.758;2023-07-20T19:26:56;1.77;;;0.75;;
78372;SDS011;67656;52.074;4.758;2023-07-20T19:31:56;2.00;;;0.77;;
78372;SDS011;67656;52.074;4.758;2023-07-20T19:36:57;2.38;;;0.90;;
78372;SDS011;67656;52.074;4.758;2023-07-20T19:41:57;0.82;;;0.73;;
78372;SDS011;67656;52.074;4.758;2023-07-20T19:46:58;1.60;;;0.80;;
78372;SDS011;67656;52.074;4.758;2023-07-20T19:51:58;1.33;;;1.00;;
78372;SDS011;67656;52.074;4.758;2023-07-20T19:56:59;1.20;;;0.90;;
78372;SDS011;67656;52.074;4.758;2023-07-20T20:01:59;1.83;;;0.90;;
78372;SDS011;67656;52.074;4.758;2023-07-20T20:07:00;1.67;;;0.90;;
78372;SDS011;67656;52.074;4.758;2023-07-20T20:12:00;1.10;;;0.95;;
78372;SDS011;67656;52.074;4.758;2023-07-20T20:17:01;1.20;;;0.90;;
78372;SDS011;67656;52.074;4.758;2023-07-20T20:22:02;4.28;;;1.08;;
78372;SDS011;67656;52.074;4.758;2023-07-20T20:27:05;2.03;;;1.00;;
78372;SDS011;67656;52.074;4.758;2023-07-20T20:32:06;2.25;;;1.20;;
78372;SDS011;67656;52.074;4.758;2023-07-20T20:37:06;2.22;;;1.10;;
78372;SDS011;67656;52.074;4.758;2023-07-20T20:42:07;2.75;;;1.20;;
78372;SDS011;67656;52.074;4.758;2023-07-20T20:47:08;1.73;;;1.10;;
78372;SDS011;67656;52.074;4.758;2023-07-20T20:52:11;2.80;;;1.20;;
78372;SDS011;67656;52.074;4.758;2023-07-20T20:57:14;1.88;;;1.20;;
78372;SDS011;67656;52.074;4.758;2023-07-20T21:02:15;2.22;;;1.10;;
78372;SDS011;67656;52.074;4.758;2023-07-20T21:07:15;2.60;;;1.30;;
78372;SDS011;67656;52.074;4.758;2023-07-20T21:12:16;2.22;;;1.20;;
78372;SDS011;67656;52.074;4.758;2023-07-20T21:17:16;2.33;;;1.20;;
78372;SDS011;67656;52.074;4.758;2023-07-20T21:22:17;4.18;;;1.38;;
78372;SDS011;67656;52.074;4.758;2023-07-20T21:27:17;1.52;;;1.10;;
78372;SDS011;67656;52.074;4.758;2023-07-20T21:32:18;2.88;;;1.20;;
78372;SDS011;67656;52.074;4.758;2023-07-20T21:37:18;4.38;;;1.45;;
78372;SDS011;67656;52.074;4.758;2023-07-20T21:42:19;4.18;;;1.50;;
78372;SDS011;67656;52.074;4.758;2023-07-20T21:47:19;6.10;;;1.60;;
78372;SDS011;67656;52.074;4.758;2023-07-20T21:52:20;3.40;;;1.67;;
78372;SDS011;67656;52.074;4.758;2023-07-20T21:57:23;3.70;;;1.90;;
78372;SDS011;67656;52.074;4.758;2023-07-20T22:02:23;3.47;;;2.13;;
78372;SDS011;67656;52.074;4.758;2023-07-20T22:07:24;3.22;;;2.17;;
78372;SDS011;67656;52.074;4.758;2023-07-20T22:12:24;5.63;;;2.47;;
78372;SDS011;67656;52.074;4.758;2023-07-20T22:17:25;3.92;;;2.15;;
78372;SDS011;67656;52.074;4.758;2023-07-20T22:22:26;4.65;;;2.35;;
78372;SDS011;67656;52.074;4.758;2023-07-20T22:27:26;4.15;;;2.50;;
78372;SDS011;67656;52.074;4.758;2023-07-20T22:32:27;4.65;;;2.47;;
78372;SDS011;67656;52.074;4.758;2023-07-20T22:37:27;5.35;;;2.33;;
78372;SDS011;67656;52.074;4.758;2023-07-20T22:42:28;4.43;;;2.70;;
78372;SDS011;67656;52.074;4.758;2023-07-20T22:47:31;3.85;;;2.45;;
78372;SDS011;67656;52.074;4.758;2023-07-20T22:52:32;3.28;;;2.10;;
78372;SDS011;67656;52.074;4.758;2023-07-20T22:57:38;4.37;;;2.50;;
78372;SDS011;67656;52.074;4.758;2023-07-20T23:02:38;4.60;;;2.77;;
78372;SDS011;67656;52.074;4.758;2023-07-20T23:07:39;6.40;;;2.90;;
78372;SDS011;67656;52.074;4.758;2023-07-20T23:12:39;4.85;;;3.08;;
78372;SDS011;67656;52.074;4.758;2023-07-20T23:17:40;3.53;;;2.55;;
78372;SDS011;67656;52.074;4.758;2023-07-20T23:22:41;3.85;;;2.78;;
78372;SDS011;67656;52.074;4.758;2023-07-20T23:27:42;5.55;;;2.90;;
78372;SDS011;67656;52.074;4.758;2023-07-20T23:32:45;5.18;;;2.65;;
78372;SDS011;67656;52.074;4.758;2023-07-20T23:37:45;6.07;;;2.63;;
78372;SDS011;67656;52.074;4.758;2023-07-20T23:42:46;4.50;;;2.70;;
78372;SDS011;67656;52.074;4.758;2023-07-20T23:47:47;4.60;;;2.83;;
78372;SDS011;67656;52.074;4.758;2023-07-20T23:52:48;5.25;;;3.10;;
78372;SDS011;67656;52.074;4.758;2023-07-20T23:57:48;4.38;;;2.83;;
